Time,TemperatureF,DewpointF,PressureIn,WindDirection,WindDirectionDegrees,WindSpeedMPH,WindSpeedGustMPH,Humidity,HourlyPrecipIn,Conditions,Clouds,dailyrainin,SolarRadiationWatts/m^2,SoftwareType,DateUTC
2013-03-12 00:02:00,25.0,10.0,-100.00,SE,136,4.0,9.0,53,0.00,,,0.00,0.000000,,2013-03-12 06:02:00,
2013-03-12 00:11:00,25.0,10.0,-100.00,SE,136,4.0,9.0,53,0.00,,,0.00,0.000000,,2013-03-12 06:11:00,
2013-03-12 00:42:00,27.0,13.0,-100.00,ESE,120,9.0,11.0,54,0.00,,,0.00,0.000000,,2013-03-12 06:42:00,
2013-03-12 00:52:00,27.0,13.0,-100.00,ESE,120,9.0,11.0,54,0.00,,,0.00,0.000000,,2013-03-12 06:52:00,
2013-03-12 01:02:00,27.0,13.0,-100.00,ESE,120,9.0,11.0,54,0.00,,,0.00,0.000000,,2013-03-12 07:02:00,
2013-03-12 01:12:00,27.0,13.0,-100.00,ESE,120,9.0,11.0,54,0.00,,,0.00,0.000000,,2013-03-12 07:12:00,
2013-03-12 01:32:00,27.0,13.0,-100.00,ESE,116,7.0,11.0,54,0.00,,,0.00,0.000000,,2013-03-12 07:32:00,
2013-03-12 01:42:00,27.0,13.0,-100.00,ESE,116,7.0,11.0,54,0.00,,,0.00,0.000000,,2013-03-12 07:42:00,
2013-03-12 01:52:00,27.0,13.0,-100.00,ESE,116,7.0,11.0,54,0.00,,,0.00,0.000000,,2013-03-12 07:52:00,
2013-03-12 02:02:00,27.0,13.0,-100.00,ESE,116,7.0,11.0,54,0.00,,,0.00,0.000000,,2013-03-12 08:02:00,
2013-03-12 02:12:00,27.0,13.0,-100.00,ESE,116,7.0,11.0,54,0.00,,,0.00,0.000000,,2013-03-12 08:12:00,
2013-03-12 02:42:00,27.0,12.0,-100.00,SE,124,6.0,10.0,53,0.00,,,0.00,0.000000,,2013-03-12 08:42:00,
2013-03-12 02:52:00,27.0,12.0,-100.00,SE,124,6.0,10.0,53,0.00,,,0.00,0.000000,,2013-03-12 08:52:00,
2013-03-12 03:02:00,27.0,12.0,-100.00,SE,124,6.0,10.0,53,0.00,,,0.00,0.000000,,2013-03-12 09:02:00,
2013-03-12 03:11:00,27.0,12.0,-100.00,SE,124,6.0,10.0,53,0.00,,,0.00,0.000000,,2013-03-12 09:11:00,
2013-03-12 03:42:00,28.0,12.0,-100.00,SE,129,7.0,11.0,51,0.00,,,0.00,0.000000,,2013-03-12 09:42:00,
2013-03-12 03:52:00,28.0,12.0,-100.00,SE,129,7.0,11.0,51,0.00,,,0.00,0.000000,,2013-03-12 09:52:00,
2013-03-12 04:02:00,28.0,12.0,-100.00,SE,129,7.0,11.0,51,0.00,,,0.00,0.000000,,2013-03-12 10:02:00,
2013-03-12 04:12:00,28.0,12.0,-100.00,SE,129,7.0,11.0,51,0.00,,,0.00,0.000000,,2013-03-12 10:12:00,
2013-03-12 04:33:00,26.0,14.0,-100.00,NE,34,1.0,7.0,61,0.00,,,0.00,0.000000,,2013-03-12 10:33:00,
2013-03-12 04:42:00,26.0,14.0,-100.00,NE,34,1.0,7.0,61,0.00,,,0.00,0.000000,,2013-03-12 10:42:00,
2013-03-12 04:52:00,26.0,14.0,-100.00,NE,34,1.0,7.0,61,0.00,,,0.00,0.000000,,2013-03-12 10:52:00,
2013-03-12 05:02:00,26.0,14.0,-100.00,NE,34,1.0,7.0,61,0.00,,,0.00,0.000000,,2013-03-12 11:02:00,
2013-03-12 05:12:00,26.0,14.0,-100.00,NE,34,1.0,7.0,61,0.00,,,0.00,0.000000,,2013-03-12 11:12:00,
2013-03-12 05:32:00,26.0,15.0,-100.00,North,355,2.0,6.0,63,0.00,,,0.00,0.000000,,2013-03-12 11:32:00,
2013-03-12 05:42:00,26.0,15.0,-100.00,North,355,2.0,6.0,63,0.00,,,0.00,0.000000,,2013-03-12 11:42:00,
2013-03-12 05:52:00,26.0,15.0,-100.00,North,355,2.0,6.0,63,0.00,,,0.00,0.000000,,2013-03-12 11:52:00,
2013-03-12 06:02:00,26.0,15.0,-100.00,North,355,2.0,6.0,63,0.00,,,0.00,0.000000,,2013-03-12 12:02:00,
2013-03-12 06:12:00,26.0,15.0,-100.00,North,355,2.0,6.0,63,0.00,,,0.00,0.000000,,2013-03-12 12:12:00,
2013-03-12 06:42:00,28.0,17.0,-100.00,SSE,163,3.0,6.0,63,0.00,,,0.00,0.000000,,2013-03-12 12:42:00,
2013-03-12 06:52:00,28.0,17.0,-100.00,SSE,163,3.0,6.0,63,0.00,,,0.00,0.000000,,2013-03-12 12:52:00,
2013-03-12 07:02:00,28.0,17.0,-100.00,SSE,163,3.0,6.0,63,0.00,,,0.00,0.000000,,2013-03-12 13:02:00,
2013-03-12 07:12:00,28.0,17.0,-100.00,SSE,163,3.0,6.0,63,0.00,,,0.00,0.000000,,2013-03-12 13:12:00,
2013-03-12 07:43:00,31.0,21.0,-100.00,SE,132,6.0,10.0,65,0.00,,,0.00,0.000000,,2013-03-12 13:43:00,
2013-03-12 07:52:00,31.0,21.0,-100.00,SE,132,6.0,10.0,65,0.00,,,0.00,0.000000,,2013-03-12 13:52:00,
2013-03-12 08:02:00,31.0,21.0,-100.00,SE,132,6.0,10.0,65,0.00,,,0.00,0.000000,,2013-03-12 14:02:00,
2013-03-12 08:12:00,31.0,21.0,-100.00,SE,132,6.0,10.0,65,0.00,,,0.00,0.000000,,2013-03-12 14:12:00,
2013-03-12 08:33:00,33.0,19.0,-100.00,SE,144,7.0,12.0,55,0.00,,,0.00,0.000000,,2013-03-12 14:33:00,
2013-03-12 08:42:00,33.0,19.0,-100.00,SE,144,7.0,12.0,55,0.00,,,0.00,0.000000,,2013-03-12 14:42:00,
2013-03-12 08:53:00,33.0,19.0,-100.00,SE,144,7.0,12.0,55,0.00,,,0.00,0.000000,,2013-03-12 14:53:00,
2013-03-12 09:02:00,33.0,19.0,-100.00,SE,144,7.0,12.0,55,0.00,,,0.00,0.000000,,2013-03-12 15:02:00,
2013-03-12 09:43:00,35.0,21.0,-100.00,SSE,156,9.0,14.0,57,0.00,,,0.00,0.000000,,2013-03-12 15:43:00,
2013-03-12 09:53:00,35.0,21.0,-100.00,SSE,156,9.0,14.0,57,0.00,,,0.00,0.000000,,2013-03-12 15:53:00,
2013-03-12 10:02:00,35.0,21.0,-100.00,SSE,156,9.0,14.0,57,0.00,,,0.00,0.000000,,2013-03-12 16:02:00,
2013-03-12 10:12:00,35.0,21.0,-100.00,SSE,156,9.0,14.0,57,0.00,,,0.00,0.000000,,2013-03-12 16:12:00,
2013-03-12 10:43:00,37.0,26.0,-100.00,South,172,9.0,15.0,63,0.00,,,0.00,0.000000,,2013-03-12 16:43:00,
2013-03-12 10:53:00,37.0,26.0,-100.00,South,172,9.0,15.0,63,0.00,,,0.00,0.000000,,2013-03-12 16:53:00,
2013-03-12 11:02:00,37.0,26.0,-100.00,South,172,9.0,15.0,63,0.00,,,0.00,0.000000,,2013-03-12 17:02:00,
2013-03-12 11:12:00,37.0,26.0,-100.00,South,172,9.0,15.0,63,0.00,,,0.00,0.000000,,2013-03-12 17:12:00,
2013-03-12 11:44:00,39.0,31.0,-100.00,South,169,6.0,14.0,72,0.00,,,0.00,0.000000,,2013-03-12 17:44:00,
2013-03-12 11:53:00,39.0,31.0,-100.00,South,169,6.0,14.0,72,0.00,,,0.00,0.000000,,2013-03-12 17:53:00,
2013-03-12 12:02:00,39.0,31.0,-100.00,South,169,6.0,14.0,72,0.00,,,0.00,0.000000,,2013-03-12 18:02:00,
2013-03-12 12:12:00,39.0,31.0,-100.00,South,169,6.0,14.0,72,0.00,,,0.00,0.000000,,2013-03-12 18:12:00,
2013-03-12 12:43:00,43.0,30.0,-100.00,SE,126,7.0,12.0,60,0.00,,,0.00,0.000000,,2013-03-12 18:43:00,
2013-03-12 13:03:00,43.0,30.0,-100.00,SE,126,7.0,12.0,60,0.00,,,0.00,0.000000,,2013-03-12 19:03:00,
2013-03-12 13:12:00,43.0,30.0,-100.00,SE,126,7.0,12.0,60,0.00,,,0.00,0.000000,,2013-03-12 19:12:00,
2013-03-12 13:43:00,44.0,30.0,-100.00,South,172,9.0,16.0,58,0.00,,,0.00,0.000000,,2013-03-12 19:43:00,
2013-03-12 13:53:00,44.0,30.0,-100.00,South,172,9.0,16.0,58,0.00,,,0.00,0.000000,,2013-03-12 19:53:00,
2013-03-12 14:02:00,44.0,30.0,-100.00,South,172,9.0,16.0,58,0.00,,,0.00,0.000000,,2013-03-12 20:02:00,
2013-03-12 14:12:00,44.0,30.0,-100.00,South,172,9.0,16.0,58,0.00,,,0.00,0.000000,,2013-03-12 20:12:00,
2013-03-12 14:42:00,46.0,30.0,-100.00,South,175,9.0,14.0,53,0.00,,,0.00,0.000000,,2013-03-12 20:42:00,
2013-03-12 14:53:00,46.0,30.0,-100.00,South,175,9.0,14.0,53,0.00,,,0.00,0.000000,,2013-03-12 20:53:00,
2013-03-12 15:02:00,46.0,30.0,-100.00,South,175,9.0,14.0,53,0.00,,,0.00,0.000000,,2013-03-12 21:02:00,
2013-03-12 15:12:00,46.0,30.0,-100.00,South,175,9.0,14.0,53,0.00,,,0.00,0.000000,,2013-03-12 21:12:00,
2013-03-12 15:43:00,46.0,30.0,-100.00,South,173,8.0,16.0,53,0.00,,,0.00,0.000000,,2013-03-12 21:43:00,
2013-03-12 15:52:00,46.0,30.0,-100.00,South,173,8.0,16.0,53,0.00,,,0.00,0.000000,,2013-03-12 21:52:00,
2013-03-12 16:02:00,46.0,30.0,-100.00,South,173,8.0,16.0,53,0.00,,,0.00,0.000000,,2013-03-12 22:02:00,
2013-03-12 16:12:00,46.0,30.0,-100.00,South,173,8.0,16.0,53,0.00,,,0.00,0.000000,,2013-03-12 22:12:00,
2013-03-12 16:43:00,49.0,31.0,-100.00,SSW,197,9.0,15.0,49,0.00,,,0.00,0.000000,,2013-03-12 22:43:00,
2013-03-12 16:53:00,49.0,31.0,-100.00,SSW,197,9.0,15.0,49,0.00,,,0.00,0.000000,,2013-03-12 22:53:00,
2013-03-12 17:02:00,49.0,31.0,-100.00,SSW,197,9.0,15.0,49,0.00,,,0.00,0.000000,,2013-03-12 23:02:00,
2013-03-12 17:12:00,49.0,31.0,-100.00,SSW,197,9.0,15.0,49,0.00,,,0.00,0.000000,,2013-03-12 23:12:00,
2013-03-12 17:34:00,46.0,26.0,-100.00,SSW,205,9.0,17.0,46,0.00,,,0.00,0.000000,,2013-03-12 23:34:00,
2013-03-12 17:43:00,46.0,26.0,-100.00,SSW,205,9.0,17.0,46,0.00,,,0.00,0.000000,,2013-03-12 23:43:00,
2013-03-12 17:52:00,46.0,26.0,-100.00,SSW,205,9.0,17.0,46,0.00,,,0.00,0.000000,,2013-03-12 23:52:00,
2013-03-12 18:02:00,46.0,26.0,-100.00,SSW,205,9.0,17.0,46,0.00,,,0.00,0.000000,,2013-03-13 00:02:00,
2013-03-12 18:12:00,46.0,26.0,-100.00,SSW,205,9.0,17.0,46,0.00,,,0.00,0.000000,,2013-03-13 00:12:00,
2013-03-12 18:42:00,45.0,27.0,-100.00,SSE,151,4.0,15.0,48,0.00,,,0.00,0.000000,,2013-03-13 00:42:00,
2013-03-12 18:53:00,45.0,27.0,-100.00,SSE,151,4.0,15.0,48,0.00,,,0.00,0.000000,,2013-03-13 00:53:00,
2013-03-12 19:02:00,45.0,27.0,-100.00,SSE,151,4.0,15.0,48,0.00,,,0.00,0.000000,,2013-03-13 01:02:00,
2013-03-12 19:12:00,45.0,27.0,-100.00,SSE,151,4.0,15.0,48,0.00,,,0.00,0.000000,,2013-03-13 01:12:00,
2013-03-12 19:33:00,44.0,26.0,-100.00,SSW,195,5.0,13.0,48,0.00,,,0.00,0.000000,,2013-03-13 01:33:00,
2013-03-12 19:43:00,44.0,26.0,-100.00,SSW,195,5.0,13.0,48,0.00,,,0.00,0.000000,,2013-03-13 01:43:00,
2013-03-12 19:52:00,44.0,26.0,-100.00,SSW,195,5.0,13.0,48,0.00,,,0.00,0.000000,,2013-03-13 01:52:00,
2013-03-12 20:02:00,44.0,26.0,-100.00,SSW,195,5.0,13.0,48,0.00,,,0.00,0.000000,,2013-03-13 02:02:00,
2013-03-12 20:12:00,44.0,26.0,-100.00,SSW,195,5.0,13.0,48,0.00,,,0.00,0.000000,,2013-03-13 02:12:00,
2013-03-12 20:43:00,43.0,28.0,-100.00,SSW,201,8.0,14.0,56,0.00,,,0.00,0.000000,,2013-03-13 02:43:00,
2013-03-12 20:52:00,43.0,28.0,-100.00,SSW,201,8.0,14.0,56,0.00,,,0.00,0.000000,,2013-03-13 02:52:00,
2013-03-12 21:02:00,43.0,28.0,-100.00,SSW,201,8.0,14.0,56,0.00,,,0.00,0.000000,,2013-03-13 03:02:00,
2013-03-12 21:12:00,43.0,28.0,-100.00,SSW,201,8.0,14.0,56,0.00,,,0.00,0.000000,,2013-03-13 03:12:00,
2013-03-12 21:32:00,40.0,28.0,-100.00,South,178,4.0,12.0,61,0.00,,,0.00,0.000000,,2013-03-13 03:32:00,
2013-03-12 21:42:00,40.0,28.0,-100.00,South,178,4.0,12.0,61,0.00,,,0.00,0.000000,,2013-03-13 03:42:00,
2013-03-12 21:52:00,40.0,28.0,-100.00,South,178,4.0,12.0,61,0.00,,,0.00,0.000000,,2013-03-13 03:52:00,
2013-03-12 22:02:00,40.0,28.0,-100.00,South,178,4.0,12.0,61,0.00,,,0.00,0.000000,,2013-03-13 04:02:00,
2013-03-12 22:12:00,40.0,28.0,-100.00,South,178,4.0,12.0,61,0.00,,,0.00,0.000000,,2013-03-13 04:12:00,
2013-03-12 22:32:00,40.0,30.0,-100.00,SSE,167,9.0,13.0,68,0.00,,,0.00,0.000000,,2013-03-13 04:32:00,
2013-03-12 22:43:00,40.0,30.0,-100.00,SSE,167,9.0,13.0,68,0.00,,,0.00,0.000000,,2013-03-13 04:43:00,
2013-03-12 22:53:00,40.0,30.0,-100.00,SSE,167,9.0,13.0,68,0.00,,,0.00,0.000000,,2013-03-13 04:53:00,
2013-03-12 23:02:00,40.0,30.0,-100.00,SSE,167,9.0,13.0,68,0.00,,,0.00,0.000000,,2013-03-13 05:02:00,
2013-03-12 23:12:00,40.0,30.0,-100.00,SSE,167,9.0,13.0,68,0.00,,,0.00,0.000000,,2013-03-13 05:12:00,
2013-03-12 23:42:00,40.0,29.0,-100.00,SSE,164,8.0,13.0,64,0.00,,,0.00,0.000000,,2013-03-13 05:42:00,
2013-03-12 23:52:00,40.0,29.0,-100.00,SSE,164,8.0,13.0,64,0.00,,,0.00,0.000000,,2013-03-13 05:52:00,